createdAt,value
2019-05-28T00:01:31.109Z,94735.95
2019-05-28T00:03:57.875Z,94730.47
2019-05-28T00:06:24.667Z,94734.33
2019-05-28T00:08:51.458Z,94726.94
2019-05-28T00:11:18.308Z,94719.13
2019-05-28T00:13:44.994Z,94719.39
2019-05-28T00:16:11.698Z,94721.95
2019-05-28T00:18:38.435Z,94728.38
2019-05-28T00:21:05.217Z,94726.27
2019-05-28T00:23:31.926Z,94730.52
2019-05-28T00:25:58.787Z,94727.05
2019-05-28T00:28:26.099Z,94723.98
2019-05-28T00:30:52.875Z,94735.13
2019-05-28T00:33:19.770Z,94727.24
2019-05-28T00:35:46.567Z,94729.14
2019-05-28T00:38:13.264Z,94726.34
2019-05-28T00:40:39.999Z,94724.45
2019-05-28T00:43:06.672Z,94722.39
2019-05-28T00:45:33.507Z,94717.16
2019-05-28T00:48:00.446Z,94721.22
2019-05-28T00:50:27.224Z,94729.96
2019-05-28T00:52:54.061Z,94727.42
2019-05-28T00:55:20.894Z,94724.67
2019-05-28T00:57:48.781Z,94724.00
2019-05-28T01:00:36.184Z,94709.95
2019-05-28T01:02:48.933Z,94715.45
2019-05-28T01:05:15.936Z,94724.59
2019-05-28T01:07:42.671Z,94718.55
2019-05-28T01:10:09.821Z,94718.83
2019-05-28T01:12:36.503Z,94720.12
2019-05-28T01:15:06.938Z,94706.05
2019-05-28T01:17:33.669Z,94702.27
2019-05-28T01:20:00.414Z,94698.64
2019-05-28T01:22:27.181Z,94697.48
2019-05-28T01:24:53.933Z,94697.23
2019-05-28T01:27:20.610Z,94686.86
2019-05-28T01:29:47.316Z,94690.27
2019-05-28T01:32:14.183Z,94686.95
2019-05-28T01:34:40.872Z,94687.52
2019-05-28T01:37:07.756Z,94674.69
2019-05-28T01:39:34.490Z,94675.22
2019-05-28T01:42:01.196Z,94665.82
2019-05-28T01:44:27.991Z,94660.42
2019-05-28T01:46:54.726Z,94664.94
2019-05-28T01:49:21.421Z,94663.94
2019-05-28T01:51:48.131Z,94658.59
2019-05-28T01:54:14.883Z,94662.05
2019-05-28T01:56:41.655Z,94653.25
2019-05-28T01:59:08.367Z,94652.13
2019-05-28T02:01:35.237Z,94656.82
2019-05-28T02:04:01.921Z,94649.20
2019-05-28T02:06:28.603Z,94649.59
2019-05-28T02:08:55.407Z,94651.20
2019-05-28T02:11:22.115Z,94652.80
2019-05-28T02:13:48.919Z,94653.95
2019-05-28T02:16:15.717Z,94652.94
2019-05-28T02:18:43.549Z,94653.08
2019-05-28T02:21:10.233Z,94645.63
2019-05-28T02:23:37.083Z,94643.34
2019-05-28T02:26:04.065Z,94649.87
2019-05-28T02:28:30.769Z,94649.63
2019-05-28T02:30:57.566Z,94647.45
2019-05-28T02:33:24.230Z,94648.59
2019-05-28T02:35:50.939Z,94647.89
2019-05-28T02:38:17.723Z,94645.03
2019-05-28T02:40:44.499Z,94645.95
2019-05-28T02:43:11.273Z,94645.95
2019-05-28T02:45:38.104Z,94646.86
2019-05-28T02:48:04.898Z,94652.13
2019-05-28T02:50:57.397Z,94654.09
2019-05-28T02:53:24.121Z,94659.31
2019-05-28T02:55:51.634Z,94659.31
2019-05-28T02:58:18.607Z,94656.05
2019-05-28T03:00:47.233Z,94657.52
2019-05-28T03:03:14.639Z,94660.15
2019-05-28T03:05:42.897Z,94652.48
2019-05-28T03:08:10.882Z,94654.20
2019-05-28T03:11:01.289Z,94649.86
2019-05-28T03:13:07.186Z,94652.92
2019-05-28T03:15:37.580Z,94656.31
2019-05-28T03:18:07.959Z,94648.81
2019-05-28T03:20:36.441Z,94647.41
2019-05-28T03:23:03.466Z,94655.67
2019-05-28T03:25:32.789Z,94652.68
2019-05-28T03:27:59.578Z,94665.41
2019-05-28T03:30:26.374Z,94655.02
2019-05-28T03:32:53.327Z,94656.84
2019-05-28T03:35:21.266Z,94647.69
2019-05-28T03:37:49.000Z,94645.42
2019-05-28T03:40:19.393Z,94646.79
2019-05-28T03:42:46.270Z,94650.77
2019-05-28T03:45:13.216Z,94641.34
2019-05-28T03:47:39.982Z,94643.53
2019-05-28T03:50:07.333Z,94638.02
2019-05-28T03:52:34.054Z,94639.69
2019-05-28T03:55:00.886Z,94634.69
2019-05-28T03:57:27.690Z,94617.53
2019-05-28T03:59:57.677Z,94628.16
2019-05-28T04:02:24.162Z,94628.84
2019-05-28T04:04:51.194Z,94626.05
2019-05-28T04:07:17.990Z,94614.72
2019-05-28T04:09:44.780Z,94600.27
2019-05-28T04:12:11.554Z,94596.14
2019-05-28T04:14:38.324Z,94604.09
2019-05-28T04:17:05.247Z,94604.89
2019-05-28T04:19:31.931Z,94612.55
2019-05-28T04:21:58.717Z,94603.24
2019-05-28T04:24:25.422Z,94606.66
2019-05-28T04:26:52.218Z,94604.19
2019-05-28T04:29:18.874Z,94605.63
2019-05-28T04:31:45.671Z,94605.91
2019-05-28T04:34:12.325Z,94609.10
2019-05-28T04:36:39.047Z,94613.00
2019-05-28T04:39:07.191Z,94618.63
2019-05-28T04:41:33.900Z,94623.11
2019-05-28T04:44:00.602Z,94618.91
2019-05-28T04:46:27.349Z,94620.59
2019-05-28T04:48:54.288Z,94625.39
2019-05-28T04:51:21.013Z,94620.26
2019-05-28T04:53:47.695Z,94620.92
2019-05-28T04:56:14.687Z,94626.45
2019-05-28T04:58:41.438Z,94623.51
2019-05-28T05:01:09.166Z,94622.69
2019-05-28T05:03:35.866Z,94619.53
2019-05-28T05:06:02.829Z,94627.20
2019-05-28T05:08:29.649Z,94625.18
2019-05-28T05:10:56.310Z,94622.19
2019-05-28T05:13:23.087Z,94623.88
2019-05-28T05:15:49.768Z,94624.37
2019-05-28T05:18:16.522Z,94623.17
2019-05-28T05:20:43.466Z,94628.16
2019-05-28T05:23:10.157Z,94628.36
2019-05-28T05:25:36.938Z,94622.64
2019-05-28T05:28:03.765Z,94617.82
2019-05-28T05:30:30.458Z,94612.11
2019-05-28T05:32:57.226Z,94620.75
2019-05-28T05:35:24.103Z,94616.88
2019-05-28T05:37:50.962Z,94619.46
2019-05-28T05:40:18.482Z,94617.66
2019-05-28T05:42:45.447Z,94621.67
2019-05-28T05:45:12.447Z,94625.55
2019-05-28T05:47:39.218Z,94622.11
2019-05-28T05:50:06.444Z,94623.18
2019-05-28T05:52:33.365Z,94621.81
2019-05-28T05:55:00.183Z,94617.92
2019-05-28T05:57:27.247Z,94616.28
2019-05-28T05:59:54.019Z,94619.54
2019-05-28T06:02:20.721Z,94617.37
2019-05-28T06:04:47.910Z,94614.91
2019-05-28T06:07:14.693Z,94615.98
2019-05-28T06:09:41.492Z,94615.62
2019-05-28T06:12:08.257Z,94606.62
2019-05-28T06:14:37.876Z,94605.20
2019-05-28T06:17:03.814Z,94600.69
2019-05-28T06:19:30.887Z,94600.23
2019-05-28T06:21:57.568Z,94610.98
2019-05-28T06:24:24.434Z,94595.38
2019-05-28T06:26:51.172Z,94608.98
2019-05-28T06:29:17.855Z,94599.52
2019-05-28T06:31:44.613Z,94585.88
2019-05-28T06:34:11.488Z,94597.25
2019-05-28T06:36:38.284Z,94583.70
2019-05-28T06:39:06.712Z,94589.81
2019-05-28T06:41:33.474Z,94582.44
2019-05-28T06:44:00.232Z,94583.29
2019-05-28T06:46:26.952Z,94581.54
2019-05-28T06:48:53.720Z,94588.90
2019-05-28T06:51:20.463Z,94575.53
2019-05-28T06:53:47.314Z,94577.51
2019-05-28T06:56:14.238Z,94575.02
2019-05-28T06:58:40.968Z,94583.55
2019-05-28T07:01:07.948Z,94580.19
2019-05-28T07:03:34.888Z,94569.83
2019-05-28T07:06:07.253Z,94567.06
2019-05-28T07:08:30.222Z,94566.45
2019-05-28T07:10:58.554Z,94572.33
2019-05-28T07:13:25.489Z,94573.16
2019-05-28T07:15:52.199Z,94573.09
2019-05-28T07:18:18.930Z,94573.04
2019-05-28T07:20:45.638Z,94570.72
2019-05-28T07:23:12.334Z,94570.08
2019-05-28T07:25:39.161Z,94558.87
2019-05-28T07:28:11.131Z,94569.83
2019-05-28T07:30:34.464Z,94573.66
2019-05-28T07:33:01.321Z,94566.88
2019-05-28T07:35:44.280Z,94562.67
2019-05-28T07:37:56.612Z,94561.66
2019-05-28T07:40:31.554Z,94555.16
2019-05-28T07:42:53.365Z,94571.12
2019-05-28T07:45:20.058Z,94561.51
2019-05-28T07:47:46.872Z,94558.06
2019-05-28T07:50:13.798Z,94556.84
2019-05-28T07:52:41.469Z,94554.26
2019-05-28T07:55:08.245Z,94559.88
2019-05-28T07:57:35.279Z,94560.97
2019-05-28T08:00:05.278Z,94562.40
2019-05-28T08:02:31.000Z,94563.95
2019-05-28T08:04:57.854Z,94569.70
2019-05-28T08:07:24.527Z,94576.45
2019-05-28T08:09:51.433Z,94569.19
2019-05-28T08:12:18.215Z,94574.40
2019-05-28T08:14:44.896Z,94574.94
2019-05-28T08:17:11.836Z,94563.46
2019-05-28T08:19:38.597Z,94572.55
2019-05-28T08:22:05.346Z,94572.60
2019-05-28T08:24:33.449Z,94568.76
2019-05-28T08:27:00.339Z,94572.55
2019-05-28T08:29:27.099Z,94574.30
2019-05-28T08:31:53.972Z,94572.33
2019-05-28T08:34:20.694Z,94571.65
2019-05-28T08:37:04.520Z,94575.33
2019-05-28T08:39:16.228Z,94569.25
2019-05-28T08:41:43.006Z,94567.79
2019-05-28T08:44:09.772Z,94577.02
2019-05-28T08:46:37.034Z,94571.58
2019-05-28T08:49:03.825Z,94572.59
2019-05-28T08:51:30.539Z,94577.53
2019-05-28T08:53:57.507Z,94583.67
2019-05-28T08:56:24.256Z,94570.82
2019-05-28T08:58:51.331Z,94578.03
2019-05-28T09:01:18.182Z,94572.05
2019-05-28T09:03:45.033Z,94578.03
2019-05-28T09:06:11.816Z,94569.04
2019-05-28T09:08:40.239Z,94569.56
2019-05-28T09:11:07.891Z,94567.34
2019-05-28T09:13:35.147Z,94568.02
2019-05-28T09:16:01.900Z,94559.53
2019-05-28T09:18:28.582Z,94562.45
2019-05-28T09:20:55.372Z,94564.50
2019-05-28T09:23:22.236Z,94560.30
2019-05-28T09:25:49.241Z,94565.27
2019-05-28T09:28:29.030Z,94564.99
2019-05-28T09:30:45.013Z,94578.72
2019-05-28T09:33:11.727Z,94561.09
2019-05-28T09:35:44.781Z,94560.91
2019-05-28T09:38:07.691Z,94565.67
2019-05-28T09:40:49.409Z,94565.97
2019-05-28T09:43:03.124Z,94558.59
2019-05-28T09:45:29.883Z,94557.63
2019-05-28T09:47:56.692Z,94550.47
2019-05-28T09:50:30.749Z,94564.61
2019-05-28T09:52:55.267Z,94547.52
2019-05-28T09:55:22.174Z,94549.32
2019-05-28T09:57:48.971Z,94552.46
2019-05-28T10:00:20.641Z,94550.11
2019-05-28T10:02:47.450Z,94544.10
2019-05-28T10:05:14.548Z,94542.57
2019-05-28T10:07:42.236Z,94541.49
2019-05-28T10:10:09.111Z,94543.55
2019-05-28T10:12:35.867Z,94543.20
2019-05-28T10:15:05.737Z,94538.04
2019-05-28T10:17:32.459Z,94533.47
2019-05-28T10:19:59.141Z,94524.59
2019-05-28T10:22:26.222Z,94514.77
2019-05-28T10:24:53.033Z,94515.20
2019-05-28T10:27:19.753Z,94520.35
2019-05-28T10:29:46.543Z,94518.00
2019-05-28T10:32:13.255Z,94522.55
2019-05-28T10:34:39.987Z,94520.97
2019-05-28T10:37:06.854Z,94505.13
2019-05-28T10:39:33.666Z,94503.55
2019-05-28T10:42:00.780Z,94500.41
2019-05-28T10:44:27.702Z,94500.83
2019-05-28T10:46:54.388Z,94496.26
2019-05-28T10:49:22.110Z,94508.73
2019-05-28T10:51:48.850Z,94505.37
2019-05-28T10:54:15.601Z,94493.28
2019-05-28T10:56:42.316Z,94493.06
2019-05-28T10:59:09.146Z,94488.13
2019-05-28T11:01:35.913Z,94496.83
2019-05-28T11:04:03.472Z,94488.50
2019-05-28T11:06:30.340Z,94489.28
2019-05-28T11:08:57.113Z,94484.71
2019-05-28T11:11:24.071Z,94486.30
2019-05-28T11:13:53.563Z,94486.52
2019-05-28T11:16:19.520Z,94480.76
2019-05-28T11:18:46.398Z,94471.80
2019-05-28T11:21:13.075Z,94483.70
2019-05-28T11:23:39.861Z,94468.02
2019-05-28T11:26:06.551Z,94469.95
2019-05-28T11:28:33.245Z,94461.38
2019-05-28T11:31:00.093Z,94470.31
2019-05-28T11:33:26.785Z,94455.42
2019-05-28T11:35:53.470Z,94449.27
2019-05-28T11:38:20.217Z,94446.67
2019-05-28T11:40:48.014Z,94445.67
2019-05-28T11:43:14.701Z,94447.09
2019-05-28T11:45:41.529Z,94436.73
2019-05-28T11:48:08.351Z,94434.05
2019-05-28T11:50:35.145Z,94438.58
2019-05-28T11:53:01.891Z,94438.58
2019-05-28T11:55:28.592Z,94438.62
2019-05-28T11:57:55.264Z,94427.50
2019-05-28T12:00:24.587Z,94436.66
2019-05-28T12:02:51.479Z,94423.43
2019-05-28T12:05:19.028Z,94418.61
2019-05-28T12:07:45.747Z,94416.09
2019-05-28T12:10:13.157Z,94416.27
2019-05-28T12:12:39.846Z,94416.66
2019-05-28T12:15:14.579Z,94412.48
2019-05-28T12:17:43.053Z,94416.58
2019-05-28T12:20:12.741Z,94425.86
2019-05-28T12:22:40.221Z,94420.86
2019-05-28T12:25:08.699Z,94418.30
2019-05-28T12:27:35.424Z,94411.07
2019-05-28T12:30:04.089Z,94406.13
2019-05-28T12:32:31.062Z,94408.74
2019-05-28T12:34:57.732Z,94408.63
2019-05-28T12:37:24.425Z,94398.91
2019-05-28T12:39:51.641Z,94406.29
2019-05-28T12:42:18.528Z,94399.95
2019-05-28T12:44:45.496Z,94395.89
2019-05-28T12:47:14.763Z,94388.06
2019-05-28T12:49:40.852Z,94387.26
2019-05-28T12:52:07.688Z,94385.55
2019-05-28T12:54:34.530Z,94379.70
2019-05-28T12:57:01.217Z,94377.86
2019-05-28T12:59:28.137Z,94375.76
2019-05-28T13:01:54.986Z,94372.62
2019-05-28T13:04:21.707Z,94371.05
2019-05-28T13:06:48.473Z,94374.77
2019-05-28T13:09:15.400Z,94369.36
2019-05-28T13:11:42.169Z,94369.00
2019-05-28T13:14:08.853Z,94366.53
2019-05-28T13:16:37.521Z,94365.47
2019-05-28T13:19:04.208Z,94355.12
2019-05-28T13:21:31.214Z,94359.42
2019-05-28T13:23:58.078Z,94354.46
2019-05-28T13:26:24.848Z,94355.85
2019-05-28T13:28:51.541Z,94359.08
2019-05-28T13:31:18.652Z,94356.20
2019-05-28T13:33:45.368Z,94342.89
2019-05-28T13:36:12.058Z,94342.43
2019-05-28T13:38:42.556Z,94336.61
2019-05-28T13:41:08.634Z,94339.23
2019-05-28T13:43:35.323Z,94336.77
2019-05-28T13:46:02.090Z,94341.70
2019-05-28T13:48:28.948Z,94337.17
2019-05-28T13:50:55.663Z,94338.36
2019-05-28T13:53:22.670Z,94344.48
2019-05-28T13:55:49.443Z,94328.06
2019-05-28T13:58:16.158Z,94339.14
2019-05-28T14:00:42.910Z,94337.94
2019-05-28T14:03:10.214Z,94330.06
2019-05-28T14:05:37.834Z,94326.84
2019-05-28T14:08:04.632Z,94319.42
2019-05-28T14:10:31.430Z,94329.96
2019-05-28T14:12:58.181Z,94320.64
2019-05-28T14:15:24.868Z,94318.64
2019-05-28T14:17:51.538Z,94313.16
2019-05-28T14:20:18.929Z,94311.91
2019-05-28T14:22:45.793Z,94303.31
2019-05-28T14:25:13.739Z,94301.56
2019-05-28T14:27:40.627Z,94303.23
2019-05-28T14:30:12.315Z,94294.61
2019-05-28T14:32:39.000Z,94288.58
2019-05-28T14:35:06.849Z,94282.55
2019-05-28T14:37:33.624Z,94278.48
2019-05-28T14:40:00.303Z,94277.82
2019-05-28T14:42:26.975Z,94269.98
2019-05-28T14:44:53.663Z,94273.67
2019-05-28T14:47:20.409Z,94261.92
2019-05-28T14:49:47.098Z,94254.41
2019-05-28T14:52:13.859Z,94247.28
2019-05-28T14:54:40.644Z,94252.20
2019-05-28T14:57:07.362Z,94242.16
2019-05-28T14:59:34.033Z,94235.77
2019-05-28T15:02:00.809Z,94237.30
2019-05-28T15:04:27.591Z,94235.89
2019-05-28T15:06:57.213Z,94226.79
2019-05-28T15:09:22.925Z,94234.27
2019-05-28T15:11:49.610Z,94222.36
2019-05-28T15:14:16.301Z,94208.95
2019-05-28T15:16:43.091Z,94202.50
2019-05-28T15:19:09.717Z,94199.66
2019-05-28T15:21:36.406Z,94201.52
2019-05-28T15:24:03.182Z,94187.05
2019-05-28T15:26:29.949Z,94186.07
2019-05-28T15:28:56.622Z,94199.05
2019-05-28T15:31:23.298Z,94195.37
2019-05-28T15:33:49.964Z,94196.77
2019-05-28T15:36:16.753Z,94209.17
2019-05-28T15:38:43.395Z,94202.41
2019-05-28T15:41:10.151Z,94203.34
2019-05-28T15:43:36.898Z,94201.10
2019-05-28T15:46:03.743Z,94191.72
2019-05-28T15:48:30.423Z,94179.14
2019-05-28T15:50:57.129Z,94181.41
2019-05-28T15:53:23.891Z,94190.17
2019-05-28T15:55:50.652Z,94193.33
2019-05-28T15:58:17.316Z,94191.73
2019-05-28T16:00:44.095Z,94194.67
2019-05-28T16:03:10.803Z,94196.59
2019-05-28T16:05:37.885Z,94187.95
2019-05-28T16:08:04.651Z,94182.92
2019-05-28T16:10:31.383Z,94184.65
2019-05-28T16:12:58.174Z,94182.29
2019-05-28T16:15:25.042Z,94192.46
2019-05-28T16:17:51.707Z,94191.28
2019-05-28T16:20:18.768Z,94190.44
2019-05-28T16:22:45.452Z,94193.13
2019-05-28T16:25:13.626Z,94189.42
2019-05-28T16:27:40.391Z,94194.94
2019-05-28T16:30:09.542Z,94198.20
2019-05-28T16:32:36.414Z,94197.58
2019-05-28T16:35:06.072Z,94201.36
2019-05-28T16:37:33.736Z,94198.98
2019-05-28T16:40:14.019Z,94196.61
2019-05-28T16:42:29.174Z,94197.62
2019-05-28T16:44:56.442Z,94191.50
2019-05-28T16:47:23.254Z,94185.95
2019-05-28T16:49:53.057Z,94195.06
2019-05-28T16:52:19.728Z,94194.27
2019-05-28T16:54:46.475Z,94184.75
2019-05-28T16:57:13.221Z,94184.14
2019-05-28T16:59:39.938Z,94187.11
2019-05-28T17:02:06.599Z,94176.42
2019-05-28T17:04:33.340Z,94174.83
2019-05-28T17:07:00.037Z,94185.30
2019-05-28T17:09:26.747Z,94169.91
2019-05-28T17:11:53.457Z,94175.63
2019-05-28T17:14:20.289Z,94165.92
2019-05-28T17:16:46.942Z,94170.67
2019-05-28T17:19:13.731Z,94163.49
2019-05-28T17:21:40.555Z,94159.44
2019-05-28T17:24:07.373Z,94163.86
2019-05-28T17:26:34.235Z,94160.65
2019-05-28T17:29:00.997Z,94172.48
2019-05-28T17:31:27.767Z,94174.23
2019-05-28T17:33:54.463Z,94177.87
2019-05-28T17:36:22.329Z,94183.41
2019-05-28T17:38:49.146Z,94184.96
2019-05-28T17:41:15.835Z,94184.95
2019-05-28T17:43:42.634Z,94197.69
2019-05-28T17:46:09.273Z,94195.25
2019-05-28T17:48:36.165Z,94196.75
2019-05-28T17:51:02.832Z,94206.19
2019-05-28T17:53:29.579Z,94206.01
2019-05-28T17:55:56.320Z,94207.40
2019-05-28T17:58:23.067Z,94210.13
2019-05-28T18:00:49.820Z,94209.63
2019-05-28T18:03:16.522Z,94217.09
2019-05-28T18:05:43.223Z,94223.02
2019-05-28T18:08:10.022Z,94225.67
2019-05-28T18:10:36.729Z,94227.24
2019-05-28T18:13:03.422Z,94230.91
2019-05-28T18:15:31.488Z,94233.80
2019-05-28T18:17:58.170Z,94240.81
2019-05-28T18:20:26.193Z,94256.89
2019-05-28T18:22:52.986Z,94255.21
2019-05-28T18:25:20.646Z,94262.02
2019-05-28T18:27:47.868Z,94255.96
2019-05-28T18:30:15.272Z,94260.16
2019-05-28T18:32:41.944Z,94258.05
2019-05-28T18:35:09.084Z,94260.46
2019-05-28T18:37:36.062Z,94264.09
2019-05-28T18:40:05.486Z,94268.56
2019-05-28T18:42:32.192Z,94270.39
2019-05-28T18:44:58.951Z,94274.52
2019-05-28T18:47:25.750Z,94275.55
2019-05-28T18:49:52.622Z,94282.04
2019-05-28T18:52:19.423Z,94271.97
2019-05-28T18:54:46.081Z,94271.83
2019-05-28T18:57:12.819Z,94277.30
2019-05-28T18:59:39.800Z,94270.64
2019-05-28T19:02:06.714Z,94276.58
2019-05-28T19:04:33.558Z,94276.53
2019-05-28T19:07:00.242Z,94283.69
2019-05-28T19:09:26.940Z,94280.39
2019-05-28T19:11:53.723Z,94279.45
2019-05-28T19:14:20.525Z,94279.87
2019-05-28T19:16:47.488Z,94289.81
2019-05-28T19:19:15.335Z,94290.86
2019-05-28T19:21:42.032Z,94284.50
2019-05-28T19:24:08.934Z,94294.79
2019-05-28T19:26:35.616Z,94297.74
2019-05-28T19:29:02.580Z,94298.15
2019-05-28T19:31:29.417Z,94296.98
2019-05-28T19:33:56.783Z,94298.98
2019-05-28T19:36:24.083Z,94301.05
2019-05-28T19:38:51.484Z,94293.16
2019-05-28T19:41:18.471Z,94298.80
2019-05-28T19:43:45.291Z,94304.39
2019-05-28T19:46:11.988Z,94313.63
2019-05-28T19:48:38.683Z,94322.97
2019-05-28T19:51:05.369Z,94329.29
2019-05-28T19:53:32.208Z,94331.02
2019-05-28T19:55:58.934Z,94341.12
2019-05-28T19:58:25.940Z,94339.95
2019-05-28T20:00:52.694Z,94351.23
2019-05-28T20:03:19.405Z,94347.26
2019-05-28T20:05:46.170Z,94338.78
2019-05-28T20:08:12.938Z,94339.08
2019-05-28T20:10:40.445Z,94332.72
2019-05-28T20:13:07.501Z,94350.55
2019-05-28T20:15:34.175Z,94349.52
2019-05-28T20:18:00.868Z,94348.94
2019-05-28T20:20:27.610Z,94352.48
2019-05-28T20:22:54.322Z,94346.02
2019-05-28T20:25:21.388Z,94351.03
2019-05-28T20:27:48.213Z,94349.70
2019-05-28T20:30:16.009Z,94352.08
2019-05-28T20:32:42.795Z,94346.96
2019-05-28T20:35:09.792Z,94349.09
2019-05-28T20:37:36.690Z,94342.93
2019-05-28T20:40:06.091Z,94347.25
2019-05-28T20:42:35.803Z,94347.50
2019-05-28T20:45:06.636Z,94347.36
2019-05-28T20:47:33.367Z,94344.06
2019-05-28T20:50:00.757Z,94347.34
2019-05-28T20:52:27.645Z,94343.27
2019-05-28T20:54:55.111Z,94343.23
2019-05-28T20:57:21.993Z,94350.66
2019-05-28T20:59:49.519Z,94353.23
2019-05-28T21:02:19.145Z,94352.69
2019-05-28T21:04:45.265Z,94357.74
2019-05-28T21:07:12.014Z,94360.54
2019-05-28T21:09:38.747Z,94360.63
2019-05-28T21:12:05.551Z,94369.33
2019-05-28T21:14:32.250Z,94383.14
2019-05-28T21:16:59.239Z,94378.84
2019-05-28T21:19:26.112Z,94381.41
2019-05-28T21:21:53.710Z,94381.64
2019-05-28T21:24:20.589Z,94374.45
2019-05-28T21:26:47.344Z,94378.56
2019-05-28T21:29:14.061Z,94382.52
2019-05-28T21:31:40.770Z,94381.20
2019-05-28T21:34:07.569Z,94382.17
2019-05-28T21:36:34.469Z,94388.64
2019-05-28T21:39:03.893Z,94385.78
2019-05-28T21:41:30.967Z,94392.14
2019-05-28T21:43:58.011Z,94402.48
2019-05-28T21:46:24.880Z,94397.87
2019-05-28T21:48:52.332Z,94392.02
2019-05-28T21:51:19.159Z,94391.77
2019-05-28T21:53:45.868Z,94392.69
2019-05-28T21:56:13.850Z,94392.69
2019-05-28T21:58:40.531Z,94398.97
2019-05-28T22:01:16.985Z,94392.36
2019-05-28T22:03:43.665Z,94394.44
2019-05-28T22:06:10.411Z,94396.78
2019-05-28T22:08:37.199Z,94401.48
2019-05-28T22:11:04.027Z,94403.60
2019-05-28T22:13:30.754Z,94404.20
2019-05-28T22:15:58.059Z,94402.22
2019-05-28T22:18:24.992Z,94407.70
2019-05-28T22:20:51.667Z,94406.70
2019-05-28T22:23:18.450Z,94411.56
2019-05-28T22:25:45.159Z,94413.52
2019-05-28T22:28:12.004Z,94420.09
2019-05-28T22:30:38.728Z,94419.52
2019-05-28T22:33:05.392Z,94427.70
2019-05-28T22:35:32.250Z,94433.01
2019-05-28T22:37:59.228Z,94426.61
2019-05-28T22:40:26.383Z,94425.12
2019-05-28T22:42:53.153Z,94428.05
2019-05-28T22:45:20.127Z,94431.80
2019-05-28T22:47:46.821Z,94428.63
2019-05-28T22:50:22.553Z,94431.11
2019-05-28T22:52:44.419Z,94435.90
2019-05-28T22:55:11.575Z,94431.75
2019-05-28T22:57:38.252Z,94432.95
2019-05-28T23:00:06.718Z,94431.17
2019-05-28T23:02:33.709Z,94437.90
2019-05-28T23:05:01.037Z,94438.80
2019-05-28T23:07:27.916Z,94440.63
2019-05-28T23:09:54.637Z,94446.06
2019-05-28T23:12:21.672Z,94450.95
2019-05-28T23:14:48.737Z,94454.98
2019-05-28T23:17:15.445Z,94454.20
2019-05-28T23:19:42.146Z,94465.93
2019-05-28T23:22:09.087Z,94465.34
2019-05-28T23:24:35.822Z,94467.80
2019-05-28T23:27:03.535Z,94465.77
2019-05-28T23:29:30.542Z,94468.45
2019-05-28T23:31:57.286Z,94464.77
2019-05-28T23:34:23.928Z,94468.34
2019-05-28T23:36:50.606Z,94470.53
2019-05-28T23:39:17.273Z,94475.74
2019-05-28T23:41:44.017Z,94478.58
2019-05-28T23:44:11.654Z,94473.63
2019-05-28T23:46:38.565Z,94476.31
2019-05-28T23:49:06.092Z,94482.63
2019-05-28T23:51:33.023Z,94482.40
2019-05-28T23:53:59.716Z,94490.81
2019-05-28T23:56:26.494Z,94485.23
2019-05-28T23:58:53.280Z,94490.59
